Alton, Kansas
Current Conditions -  °F | °C
As of 6:28 PM on Sunday 21 Dec 2014 (Local Time) from KRSL Reporting Station
Overcast Overcast  
Wind Chill:   Ceiling: 2700
Heat Index:   Visibility: 8mi
Dew Point:   Wind: 16mph
Humidity: 96%   Direction: 160°SSE
Pressure: 29.61"   Gusts: NA
Location:  39.47°N, 98.95°W
Report Text: KRSL 220028Z AUTO 16014KT 8SM SCT008 OVC027 06/05 A2961 RMK AO2 T00560050
Loading
Personal Weather Stations






























Interactive Weather Map New forecast layout! Learn more

10-Day Weather Forecast

Advertisements
Track Severe Weather on mobile